Time;durP1;ratioP1;P1;durP2;ratioP2;P2;SDS_P1;SDS_P2;PMS_P1;PMS_P2;Temp;Humidity;BMP_temperature;BMP_pressure;BME280_temperature;BME280_humidity;BME280_pressure;Samples;Min_cycle;Max_cycle;Signal;HPM_P1;HPM_P2
2023/01/02 04:00:52;;;;;;;;;;;13.60;99.90;;;;;;6001920;23;19920;-69
2023/01/02 04:03:20;;;;;;;;;;;13.60;99.90;;;;;;4951171;28;19982;-69
2023/01/02 04:05:48;;;;;;;;;;;13.50;99.90;;;;;;4958628;28;19966;-70
2023/01/02 04:08:18;;;;;;;;;;;13.50;99.90;;;;;;4959091;28;19941;-68
2023/01/02 04:10:48;;;;;;;;;;;13.40;99.90;;;;;;4959188;28;19969;-70
2023/01/02 04:13:16;;;;;;;;;;;13.40;99.90;;;;;;4956976;28;20037;-70
2023/01/02 04:15:44;;;;;;;;;;;13.50;99.90;;;;;;4940415;29;20377;-68
2023/01/02 04:18:15;;;;;;;;;;;13.60;99.90;;;;;;4941038;29;20014;-69
2023/01/02 04:20:45;;;;;;;;;;;13.50;99.90;;;;;;4944085;29;20018;-69
2023/01/02 04:23:13;;;;;;;;;;;13.60;99.90;;;;;;4941733;29;20021;-70
2023/01/02 04:25:43;;;;;;;;;;;13.50;99.90;;;;;;4940797;28;19981;-70
2023/01/02 04:28:12;;;;;;;;;;;13.50;99.90;;;;;;4941624;29;19926;-69
2023/01/02 04:30:40;;;;;;;;;;;13.50;99.90;;;;;;4937313;29;20024;-69
2023/01/02 04:33:09;;;;;;;;;;;13.40;99.90;;;;;;4942034;29;20029;-69
2023/01/02 04:35:37;;;;;;;;;;;13.50;99.90;;;;;;4957309;28;19988;-68
2023/01/02 04:38:08;;;;;;;;;;;13.50;99.90;;;;;;4943002;29;19954;-69
2023/01/02 04:40:37;;;;;;;;;;;13.60;99.90;;;;;;4942212;29;20021;-69
2023/01/02 04:43:06;;;;;;;;;;;13.50;99.90;;;;;;4942070;29;19954;-69
2023/01/02 04:45:33;;;;;;;;;;;13.50;99.90;;;;;;4939920;29;19927;-69
2023/01/02 04:48:00;;;;;;;;;;;13.40;99.90;;;;;;4938905;29;19931;-69
2023/01/02 04:50:26;;;;;;;;;;;13.30;99.90;;;;;;4943944;29;20456;-69
2023/01/02 04:52:55;;;;;;;;;;;13.30;99.90;;;;;;4942242;29;19934;-69
2023/01/02 04:55:21;;;;;;;;;;;13.20;99.90;;;;;;4941669;29;19933;-68
2023/01/02 04:57:48;;;;;;;;;;;13.00;99.90;;;;;;4940655;29;19931;-70
2023/01/02 05:00:15;;;;;;;;;;;13.00;99.90;;;;;;4942427;29;19941;-70
2023/01/02 05:02:42;;;;;;;;;;;13.00;99.90;;;;;;4942935;29;19927;-68
2023/01/02 05:05:09;;;;;;;;;;;13.00;99.90;;;;;;4944131;29;19989;-69
2023/01/02 05:07:36;;;;;;;;;;;13.00;99.90;;;;;;4945058;29;20397;-69
2023/01/02 05:10:04;;;;;;;;;;;13.00;99.90;;;;;;4946093;29;20389;-70
2023/01/02 05:12:33;;;;;;;;;;;12.90;99.90;;;;;;4943110;28;19934;-69
2023/01/02 05:14:59;;;;;;;;;;;13.00;99.90;;;;;;4944520;29;19927;-69
2023/01/02 05:17:26;;;;;;;;;;;12.90;99.90;;;;;;4947992;29;19981;-68
2023/01/02 05:19:53;;;;;;;;;;;12.90;99.90;;;;;;4939926;29;19930;-72
2023/01/02 05:25:08;;;;;;;;;;;12.80;99.90;;;;;;4948437;28;19927;-69
2023/01/02 05:27:34;;;;;;;;;;;12.80;99.90;;;;;;4944732;29;19952;-69
2023/01/02 05:30:01;;;;;;;;;;;12.70;99.90;;;;;;4943040;29;19933;-69
2023/01/02 05:32:28;;;;;;;;;;;12.80;99.90;;;;;;4943446;28;19954;-70
2023/01/02 05:34:55;;;;;;;;;;;12.70;99.90;;;;;;4946892;29;19930;-70
2023/01/02 05:37:21;;;;;;;;;;;12.70;99.90;;;;;;4944904;29;19927;-69
2023/01/02 05:39:48;;;;;;;;;;;12.70;99.90;;;;;;4945414;29;19931;-69
2023/01/02 05:42:16;;;;;;;;;;;12.60;99.90;;;;;;4946143;28;19938;-69
2023/01/02 05:44:43;;;;;;;;;;;12.60;99.90;;;;;;4947985;29;19998;-67
2023/01/02 05:47:10;;;;;;;;;;;12.60;99.90;;;;;;4943312;29;19926;-69
2023/01/02 05:49:36;;;;;;;;;;;12.60;99.90;;;;;;4942826;29;20398;-69
2023/01/02 05:52:03;;;;;;;;;;;12.60;99.90;;;;;;4942240;29;20337;-68
2023/01/02 05:54:30;;;;;;;;;;;12.60;99.90;;;;;;4945222;29;19926;-69
2023/01/02 05:56:57;;;;;;;;;;;12.60;99.90;;;;;;4947113;29;19937;-70
2023/01/02 05:59:25;;;;;;;;;;;12.60;99.90;;;;;;4945880;29;19989;-70
2023/01/02 06:01:52;;;;;;;;;;;12.60;99.90;;;;;;4949687;28;19930;-68
2023/01/02 06:04:19;;;;;;;;;;;12.60;99.90;;;;;;4941791;29;20365;-69
2023/01/02 06:06:45;;;;;;;;;;;12.60;99.90;;;;;;4942290;29;19927;-70
2023/01/02 06:09:13;;;;;;;;;;;12.70;99.90;;;;;;4942034;29;20385;-70
2023/01/02 06:11:40;;;;;;;;;;;12.70;99.90;;;;;;4959956;28;19927;-70
2023/01/02 06:14:09;;;;;;;;;;;12.60;99.90;;;;;;4942984;29;19930;-69
2023/01/02 06:16:37;;;;;;;;;;;12.60;99.90;;;;;;4938208;29;19926;-68
2023/01/02 06:19:04;;;;;;;;;;;12.60;99.90;;;;;;4941478;29;19926;-69
2023/01/02 06:21:31;;;;;;;;;;;12.60;99.90;;;;;;4940906;29;19935;-69
2023/01/02 06:23:58;;;;;;;;;;;12.60;99.90;;;;;;4945057;29;19934;-70
2023/01/02 06:26:26;;;;;;;;;;;12.60;99.90;;;;;;4942129;29;19926;-68
2023/01/02 06:28:54;;;;;;;;;;;12.60;99.90;;;;;;4941941;29;19927;-69
2023/01/02 06:31:22;;;;;;;;;;;12.60;99.90;;;;;;4941878;28;19934;-69
2023/01/02 06:33:54;;;;;;;;;;;12.50;99.90;;;;;;4939294;29;19969;-69
2023/01/02 06:36:21;;;;;;;;;;;12.50;99.90;;;;;;4935952;29;20416;-69
2023/01/02 06:38:48;;;;;;;;;;;12.40;99.90;;;;;;4939130;29;19927;-69
2023/01/02 06:41:16;;;;;;;;;;;12.40;99.90;;;;;;4941728;29;19934;-70
2023/01/02 06:43:43;;;;;;;;;;;12.40;99.90;;;;;;4939063;29;19927;-69
2023/01/02 06:46:11;;;;;;;;;;;12.30;99.90;;;;;;4937459;29;19990;-68
2023/01/02 06:48:38;;;;;;;;;;;12.40;99.90;;;;;;4941114;29;20386;-69
2023/01/02 06:51:07;;;;;;;;;;;12.30;99.90;;;;;;4934649;29;19954;-72
2023/01/02 06:53:34;;;;;;;;;;;12.30;99.90;;;;;;4942961;29;19927;-71
2023/01/02 06:56:00;;;;;;;;;;;12.30;99.90;;;;;;4941198;29;19930;-71
2023/01/02 06:58:29;;;;;;;;;;;12.10;99.90;;;;;;4943184;29;19931;-69
2023/01/02 07:00:55;;;;;;;;;;;12.10;99.90;;;;;;4943198;29;19935;-72
2023/01/02 07:03:22;;;;;;;;;;;12.00;99.90;;;;;;4941424;29;19926;-68
2023/01/02 07:05:49;;;;;;;;;;;12.00;99.90;;;;;;4936994;29;19938;-68
2023/01/02 07:08:17;;;;;;;;;;;11.90;99.90;;;;;;4939655;29;19926;-68
2023/01/02 07:10:44;;;;;;;;;;;11.90;99.90;;;;;;4935266;29;19974;-67
2023/01/02 07:13:11;;;;;;;;;;;11.90;99.90;;;;;;4944998;29;19931;-67
2023/01/02 07:15:37;;;;;;;;;;;11.80;99.90;;;;;;4941416;29;19926;-68
2023/01/02 07:18:04;;;;;;;;;;;11.80;99.90;;;;;;4945669;29;20412;-68
2023/01/02 07:20:31;;;;;;;;;;;11.80;99.90;;;;;;4942141;29;19986;-67
2023/01/02 07:22:58;;;;;;;;;;;11.90;99.90;;;;;;4945323;28;19978;-67
2023/01/02 07:25:26;;;;;;;;;;;11.90;99.90;;;;;;4940609;29;19930;-66
2023/01/02 07:27:52;;;;;;;;;;;11.80;99.90;;;;;;4934446;29;19926;-67
2023/01/02 07:30:19;;;;;;;;;;;11.80;99.90;;;;;;4943159;29;19933;-74
2023/01/02 07:32:46;;;;;;;;;;;11.80;99.90;;;;;;4941875;29;19927;-69
2023/01/02 07:35:13;;;;;;;;;;;11.80;99.90;;;;;;4945284;29;20294;-69
2023/01/02 07:37:40;;;;;;;;;;;11.80;99.90;;;;;;4943462;29;19926;-69
2023/01/02 07:40:07;;;;;;;;;;;11.80;99.90;;;;;;4943172;29;19934;-69
2023/01/02 07:42:35;;;;;;;;;;;11.80;99.90;;;;;;4943707;28;19969;-70
2023/01/02 07:45:02;;;;;;;;;;;11.80;99.90;;;;;;4937402;29;20444;-69
2023/01/02 07:47:29;;;;;;;;;;;11.80;99.90;;;;;;4945156;29;19927;-70
2023/01/02 07:49:55;;;;;;;;;;;11.80;99.90;;;;;;4937516;29;19927;-68
2023/01/02 07:52:22;;;;;;;;;;;11.80;99.90;;;;;;4934554;29;20003;-70
2023/01/02 07:54:50;;;;;;;;;;;11.80;99.90;;;;;;4941619;29;19927;-69
2023/01/02 07:57:16;;;;;;;;;;;11.70;99.90;;;;;;4941762;29;19931;-69
2023/01/02 07:59:45;;;;;;;;;;;11.70;99.90;;;;;;4944141;29;19930;-69
2023/01/02 08:02:12;;;;;;;;;;;11.70;99.90;;;;;;4938250;28;20398;-70
2023/01/02 08:04:39;;;;;;;;;;;11.60;99.90;;;;;;4935283;29;19930;-70
2023/01/02 08:07:06;;;;;;;;;;;11.60;99.90;;;;;;4943331;29;19934;-70
2023/01/02 08:09:33;;;;;;;;;;;11.60;99.90;;;;;;4946397;29;19926;-69
2023/01/02 08:12:00;;;;;;;;;;;11.60;99.90;;;;;;4942792;28;20390;-70
2023/01/02 08:14:27;;;;;;;;;;;11.60;99.90;;;;;;4938397;29;20352;-70
2023/01/02 08:16:55;;;;;;;;;;;11.60;99.90;;;;;;4944436;29;19926;-69
2023/01/02 08:19:22;;;;;;;;;;;11.50;99.90;;;;;;4933159;29;19934;-70
2023/01/02 08:21:48;;;;;;;;;;;11.50;99.90;;;;;;4950253;28;20453;-69
2023/01/02 08:24:15;;;;;;;;;;;11.40;99.90;;;;;;4945881;28;19926;-71
2023/01/02 08:26:42;;;;;;;;;;;11.40;99.90;;;;;;4939096;29;19934;-71
2023/01/02 08:29:09;;;;;;;;;;;11.30;99.90;;;;;;4935422;29;20358;-71
2023/01/02 08:31:35;;;;;;;;;;;11.30;99.90;;;;;;4936491;29;19930;-71
2023/01/02 08:34:04;;;;;;;;;;;11.30;99.90;;;;;;4936093;28;19937;-69
2023/01/02 08:36:30;;;;;;;;;;;11.20;99.90;;;;;;4940919;29;20418;-70
2023/01/02 08:38:57;;;;;;;;;;;11.30;99.90;;;;;;4943699;29;19974;-71
2023/01/02 08:41:31;;;;;;;;;;;11.20;99.90;;;;;;4943701;29;19934;-70
2023/01/02 08:43:58;;;;;;;;;;;11.20;99.90;;;;;;4941379;29;20342;-71
2023/01/02 08:46:25;;;;;;;;;;;11.20;99.90;;;;;;4937709;29;19954;-70
2023/01/02 08:48:52;;;;;;;;;;;11.20;99.90;;;;;;4941830;29;19927;-71
2023/01/02 08:51:20;;;;;;;;;;;11.20;99.90;;;;;;4937832;29;19953;-70
2023/01/02 08:53:47;;;;;;;;;;;11.20;99.90;;;;;;4935807;29;19982;-71
2023/01/02 08:56:22;;;;;;;;;;;11.10;99.90;;;;;;4936714;29;19951;-71
2023/01/02 08:58:52;;;;;;;;;;;11.10;99.90;;;;;;4929275;29;19934;-70
2023/01/02 09:01:19;;;;;;;;;;;11.10;99.90;;;;;;4941235;28;19982;-70
2023/01/02 09:03:45;;;;;;;;;;;11.10;99.90;;;;;;4934867;29;19955;-70
2023/01/02 09:06:12;;;;;;;;;;;11.00;99.90;;;;;;4936023;29;19930;-74
2023/01/02 09:08:41;;;;;;;;;;;11.10;99.90;;;;;;4937768;29;19977;-70
2023/01/02 09:11:11;;;;;;;;;;;11.00;99.90;;;;;;4943809;28;20338;-71
2023/01/02 09:13:38;;;;;;;;;;;10.80;99.90;;;;;;4943076;28;19926;-71
2023/01/02 09:16:05;;;;;;;;;;;10.70;99.90;;;;;;4943156;29;19942;-70
2023/01/02 09:18:32;;;;;;;;;;;10.60;99.90;;;;;;4946275;29;19930;-71
2023/01/02 09:20:59;;;;;;;;;;;10.60;99.90;;;;;;4936758;29;19933;-71
2023/01/02 09:23:26;;;;;;;;;;;10.60;99.90;;;;;;4949360;29;19942;-71
2023/01/02 09:25:57;;;;;;;;;;;10.50;99.90;;;;;;4940871;29;20011;-71
2023/01/02 09:28:24;;;;;;;;;;;10.50;99.90;;;;;;4940022;29;19935;-71
2023/01/02 09:30:51;;;;;;;;;;;10.50;99.90;;;;;;4940844;29;19933;-72
2023/01/02 09:33:17;;;;;;;;;;;10.50;99.90;;;;;;4946441;29;19991;-70
2023/01/02 09:35:44;;;;;;;;;;;10.50;99.90;;;;;;4935708;29;19931;-70
2023/01/02 09:38:11;;;;;;;;;;;10.40;99.90;;;;;;4942038;29;20353;-70
2023/01/02 09:40:38;;;;;;;;;;;10.40;99.90;;;;;;4936242;29;19981;-71
2023/01/02 09:43:07;;;;;;;;;;;10.50;99.90;;;;;;4938562;29;19978;-71
2023/01/02 09:45:33;;;;;;;;;;;10.50;99.90;;;;;;4937102;29;19982;-71
2023/01/02 09:48:00;;;;;;;;;;;10.50;99.90;;;;;;4938675;29;19927;-72
2023/01/02 09:50:29;;;;;;;;;;;10.40;99.90;;;;;;4936431;29;19963;-71
2023/01/02 09:52:57;;;;;;;;;;;10.40;99.90;;;;;;4939758;29;20341;-71
2023/01/02 09:55:28;;;;;;;;;;;10.40;99.90;;;;;;4937415;29;20376;-74
2023/01/02 09:57:57;;;;;;;;;;;10.50;99.90;;;;;;4938197;29;19935;-73
2023/01/02 10:00:26;;;;;;;;;;;10.50;99.90;;;;;;4935964;29;20301;-72
2023/01/02 10:03:00;;;;;;;;;;;10.50;99.90;;;;;;4934370;29;19930;-73
2023/01/02 10:05:33;;;;;;;;;;;10.60;99.90;;;;;;4934716;29;19969;-73
2023/01/02 10:08:03;;;;;;;;;;;10.60;99.90;;;;;;4935978;29;20382;-72
2023/01/02 10:10:33;;;;;;;;;;;10.60;99.90;;;;;;4935218;29;19927;-73
2023/01/02 10:13:03;;;;;;;;;;;10.60;99.90;;;;;;4936802;29;19927;-72
2023/01/02 10:15:32;;;;;;;;;;;10.60;99.90;;;;;;4939768;29;19926;-73
2023/01/02 10:18:02;;;;;;;;;;;10.60;99.90;;;;;;4936604;29;20389;-73
2023/01/02 10:20:32;;;;;;;;;;;10.60;99.90;;;;;;4937459;29;19927;-74
2023/01/02 10:23:01;;;;;;;;;;;10.70;99.90;;;;;;4936275;29;19926;-67
2023/01/02 10:25:30;;;;;;;;;;;10.70;99.90;;;;;;4937470;29;19990;-72
2023/01/02 10:28:00;;;;;;;;;;;10.80;99.90;;;;;;4940364;29;19978;-69
2023/01/02 10:30:31;;;;;;;;;;;10.80;99.90;;;;;;4935662;29;19927;-68
2023/01/02 10:33:02;;;;;;;;;;;10.80;99.90;;;;;;4937528;29;19927;-68
2023/01/02 10:35:36;;;;;;;;;;;10.90;99.90;;;;;;4945286;29;20441;-67
2023/01/02 10:38:03;;;;;;;;;;;10.90;99.90;;;;;;4953501;28;19926;-67
2023/01/02 10:40:30;;;;;;;;;;;10.90;99.90;;;;;;4947081;29;20390;-68
2023/01/02 10:42:59;;;;;;;;;;;10.90;99.90;;;;;;4941287;28;20390;-70
2023/01/02 10:45:26;;;;;;;;;;;10.80;99.90;;;;;;4938409;29;19926;-69
2023/01/02 10:47:52;;;;;;;;;;;10.80;99.90;;;;;;4944834;28;19931;-68
2023/01/02 10:50:22;;;;;;;;;;;10.80;99.90;;;;;;4947549;29;19926;-68
2023/01/02 10:52:49;;;;;;;;;;;10.80;99.90;;;;;;4948108;28;20309;-69
2023/01/02 10:55:28;;;;;;;;;;;10.80;99.90;;;;;;4947587;28;20029;-68
2023/01/02 10:58:01;;;;;;;;;;;10.80;99.90;;;;;;4945223;28;19933;-67
2023/01/02 11:00:29;;;;;;;;;;;10.80;99.90;;;;;;4940301;29;20362;-68
2023/01/02 11:02:56;;;;;;;;;;;10.90;99.90;;;;;;4942794;28;19930;-75
2023/01/02 11:05:26;;;;;;;;;;;11.00;99.90;;;;;;4943350;29;20006;-71
2023/01/02 11:07:53;;;;;;;;;;;11.00;99.90;;;;;;4954060;28;19930;-71
2023/01/02 11:10:24;;;;;;;;;;;11.00;99.90;;;;;;4937968;29;19986;-72
2023/01/02 11:12:51;;;;;;;;;;;10.90;99.90;;;;;;4945695;28;19950;-70
2023/01/02 11:15:23;;;;;;;;;;;10.90;99.90;;;;;;4942625;29;19934;-69
2023/01/02 11:17:50;;;;;;;;;;;10.90;99.90;;;;;;4929392;29;20025;-69
2023/01/02 11:20:26;;;;;;;;;;;10.90;99.90;;;;;;4943396;29;19981;-69
2023/01/02 11:22:54;;;;;;;;;;;10.90;99.90;;;;;;4953590;28;19934;-69
2023/01/02 11:25:23;;;;;;;;;;;11.00;99.90;;;;;;4950491;28;19942;-68
2023/01/02 11:27:50;;;;;;;;;;;11.10;99.90;;;;;;4937302;29;19931;-69
2023/01/02 11:30:37;;;;;;;;;;;11.20;99.90;;;;;;4937057;29;20293;-68
2023/01/02 11:33:18;;;;;;;;;;;11.10;99.90;;;;;;4941966;29;19930;-70
2023/01/02 11:35:47;;;;;;;;;;;11.30;99.90;;;;;;4942184;29;19961;-69
2023/01/02 11:38:16;;;;;;;;;;;11.40;99.90;;;;;;4938964;29;20648;-74
2023/01/02 11:40:54;;;;;;;;;;;11.40;99.90;;;;;;4943317;28;19930;-73
2023/01/02 11:46:14;;;;;;;;;;;11.50;99.90;;;;;;4944384;29;19922;-71
2023/01/02 11:48:40;;;;;;;;;;;11.50;99.90;;;;;;4943984;29;20290;-72
2023/01/02 11:51:14;;;;;;;;;;;11.50;99.90;;;;;;4944165;29;19934;-72
2023/01/02 11:53:44;;;;;;;;;;;11.40;99.90;;;;;;4934275;29;19926;-71
2023/01/02 11:56:14;;;;;;;;;;;11.30;99.90;;;;;;4945686;29;19927;-71
2023/01/02 11:58:48;;;;;;;;;;;11.30;99.90;;;;;;4936076;29;19927;-72
2023/01/02 12:01:19;;;;;;;;;;;11.30;99.90;;;;;;4938708;28;20503;-71
2023/01/02 12:03:45;;;;;;;;;;;11.50;99.90;;;;;;4932825;29;19927;-72
2023/01/02 12:06:17;;;;;;;;;;;11.50;99.90;;;;;;4933312;29;19982;-73
2023/01/02 12:08:52;;;;;;;;;;;11.60;99.90;;;;;;4940599;29;19927;-72
2023/01/02 12:11:26;;;;;;;;;;;11.70;99.90;;;;;;4948402;28;19927;-73
2023/01/02 12:13:58;;;;;;;;;;;11.50;99.90;;;;;;4940099;29;19926;-72
2023/01/02 12:16:28;;;;;;;;;;;11.60;99.90;;;;;;4938564;29;19927;-72
2023/01/02 12:19:02;;;;;;;;;;;11.40;99.90;;;;;;4940311;29;19934;-72
2023/01/02 12:21:35;;;;;;;;;;;11.30;99.90;;;;;;4944434;29;19937;-72
2023/01/02 12:24:14;;;;;;;;;;;11.30;99.90;;;;;;4942561;29;19942;-72
2023/01/02 12:26:43;;;;;;;;;;;11.30;99.90;;;;;;4944583;29;20021;-72
2023/01/02 12:29:16;;;;;;;;;;;11.20;99.90;;;;;;4939558;29;19998;-72
2023/01/02 12:31:54;;;;;;;;;;;11.10;99.90;;;;;;4944582;29;20416;-71
2023/01/02 12:34:27;;;;;;;;;;;11.00;99.90;;;;;;4942543;29;19933;-72
2023/01/02 12:37:00;;;;;;;;;;;10.80;99.90;;;;;;4944805;29;19926;-72
2023/01/02 12:39:34;;;;;;;;;;;10.80;99.90;;;;;;4940763;29;19931;-72
2023/01/02 12:42:04;;;;;;;;;;;10.90;99.90;;;;;;4946647;29;19934;-71
2023/01/02 12:44:39;;;;;;;;;;;10.80;99.90;;;;;;4941579;29;19927;-71
2023/01/02 12:47:16;;;;;;;;;;;10.80;99.90;;;;;;4936263;29;19927;-71
2023/01/02 12:49:58;;;;;;;;;;;10.80;99.90;;;;;;4944727;29;19927;-72
2023/01/02 12:52:33;;;;;;;;;;;10.80;99.90;;;;;;4932839;28;20342;-72
2023/01/02 12:55:04;;;;;;;;;;;10.80;99.90;;;;;;4943841;29;19926;-72
2023/01/02 12:57:35;;;;;;;;;;;10.80;99.90;;;;;;4952315;28;19931;-71
2023/01/02 13:00:15;;;;;;;;;;;10.70;99.90;;;;;;4939964;29;19926;-71
2023/01/02 13:02:50;;;;;;;;;;;10.60;99.90;;;;;;4931894;29;19962;-71
2023/01/02 13:05:19;;;;;;;;;;;10.70;99.90;;;;;;4940967;29;19937;-72
2023/01/02 13:07:50;;;;;;;;;;;10.70;99.90;;;;;;4940107;29;20279;-72
2023/01/02 13:10:18;;;;;;;;;;;10.70;99.90;;;;;;4938063;29;20418;-71
2023/01/02 13:12:46;;;;;;;;;;;10.70;99.90;;;;;;4940068;28;19926;-72
2023/01/02 13:15:16;;;;;;;;;;;10.80;99.90;;;;;;4936223;29;19927;-71
2023/01/02 13:17:46;;;;;;;;;;;10.90;99.90;;;;;;4955363;28;19927;-72
2023/01/02 13:20:17;;;;;;;;;;;10.80;99.90;;;;;;4943236;28;19934;-73
2023/01/02 13:22:47;;;;;;;;;;;10.80;99.90;;;;;;4946398;28;19931;-72
2023/01/02 13:25:16;;;;;;;;;;;10.80;99.90;;;;;;4943483;29;19926;-72
2023/01/02 13:27:44;;;;;;;;;;;10.80;99.90;;;;;;4944221;29;20382;-72
2023/01/02 13:30:26;;;;;;;;;;;10.70;99.90;;;;;;4949129;29;19926;-72
2023/01/02 13:32:53;;;;;;;;;;;10.70;99.90;;;;;;4936677;29;19926;-71
2023/01/02 13:35:19;;;;;;;;;;;10.80;99.90;;;;;;4950309;29;19927;-71
2023/01/02 13:37:46;;;;;;;;;;;10.80;99.90;;;;;;4944026;29;19934;-72
2023/01/02 13:40:27;;;;;;;;;;;10.80;99.90;;;;;;4946119;29;19927;-72
2023/01/02 13:43:02;;;;;;;;;;;10.70;99.90;;;;;;4945585;28;20417;-72
2023/01/02 13:45:31;;;;;;;;;;;10.70;99.90;;;;;;4944284;29;19962;-69
2023/01/02 13:47:59;;;;;;;;;;;10.70;99.90;;;;;;4960967;28;19930;-71
2023/01/02 13:50:27;;;;;;;;;;;10.70;99.90;;;;;;4939524;29;19934;-69
2023/01/02 13:52:58;;;;;;;;;;;10.60;99.90;;;;;;4932058;29;19931;-70
2023/01/02 13:55:30;;;;;;;;;;;10.50;99.90;;;;;;4941301;29;19926;-72
2023/01/02 13:58:16;;;;;;;;;;;10.50;99.90;;;;;;4946638;29;20480;-74
2023/01/02 14:00:45;;;;;;;;;;;10.50;99.90;;;;;;4930418;29;20416;-75
2023/01/02 14:03:33;;;;;;;;;;;10.60;99.90;;;;;;4935516;29;19927;-72
2023/01/02 14:06:02;;;;;;;;;;;10.60;99.90;;;;;;4932749;29;20398;-72
2023/01/02 14:08:29;;;;;;;;;;;10.50;99.90;;;;;;4935208;29;19949;-71
2023/01/02 14:11:00;;;;;;;;;;;10.40;99.90;;;;;;4947961;29;19927;-70
2023/01/02 14:13:34;;;;;;;;;;;10.40;99.90;;;;;;4943232;29;20381;-71
2023/01/02 14:16:18;;;;;;;;;;;10.40;99.90;;;;;;4959931;28;19978;-71
2023/01/02 14:18:45;;;;;;;;;;;10.40;99.90;;;;;;4945912;29;19942;-71
2023/01/02 14:21:12;;;;;;;;;;;10.40;99.90;;;;;;4934586;29;19933;-77
2023/01/02 14:23:40;;;;;;;;;;;10.40;99.90;;;;;;4935101;29;19942;-71
2023/01/02 14:26:20;;;;;;;;;;;10.40;99.90;;;;;;4938587;29;20422;-71
2023/01/02 14:28:50;;;;;;;;;;;10.40;99.90;;;;;;4940460;29;20306;-71
2023/01/02 14:31:18;;;;;;;;;;;10.40;99.90;;;;;;4946113;28;19934;-70
2023/01/02 14:33:51;;;;;;;;;;;10.30;99.90;;;;;;4941752;29;19930;-71
2023/01/02 14:36:18;;;;;;;;;;;10.30;99.90;;;;;;4942504;29;19930;-71
2023/01/02 14:38:53;;;;;;;;;;;10.20;99.90;;;;;;4934300;29;19930;-71
2023/01/02 14:44:20;;;;;;;;;;;10.20;99.90;;;;;;4947487;29;19922;-72
2023/01/02 14:46:48;;;;;;;;;;;10.10;99.90;;;;;;4936578;29;19937;-71
2023/01/02 14:49:18;;;;;;;;;;;10.10;99.90;;;;;;4941084;29;19933;-72
2023/01/02 14:51:47;;;;;;;;;;;10.10;99.90;;;;;;4943622;29;19930;-72
2023/01/02 14:54:15;;;;;;;;;;;10.10;99.90;;;;;;4944427;29;19927;-72
2023/01/02 14:56:45;;;;;;;;;;;10.10;99.90;;;;;;4941071;29;19927;-69
2023/01/02 14:59:15;;;;;;;;;;;10.00;99.90;;;;;;4940897;29;19938;-71
2023/01/02 15:01:46;;;;;;;;;;;10.00;99.90;;;;;;4944800;29;19981;-72
2023/01/02 15:04:18;;;;;;;;;;;10.00;99.90;;;;;;4939430;29;19933;-71
2023/01/02 15:06:46;;;;;;;;;;;9.90;99.90;;;;;;4939086;29;19926;-73
2023/01/02 15:09:17;;;;;;;;;;;9.90;99.90;;;;;;4943258;29;19989;-72
2023/01/02 15:14:37;;;;;;;;;;;9.90;99.90;;;;;;4941045;29;19922;-79
2023/01/02 15:17:07;;;;;;;;;;;9.90;99.90;;;;;;4940901;29;19927;-73
2023/01/02 15:19:34;;;;;;;;;;;9.90;99.90;;;;;;4943582;29;20365;-71
2023/01/02 15:22:08;;;;;;;;;;;9.80;99.90;;;;;;4943037;28;19934;-68
2023/01/02 15:24:35;;;;;;;;;;;9.80;99.90;;;;;;4943704;29;19926;-72
2023/01/02 15:27:11;;;;;;;;;;;9.80;99.90;;;;;;4940142;29;19926;-70
2023/01/02 15:29:45;;;;;;;;;;;9.80;99.90;;;;;;4941777;29;19962;-73
2023/01/02 15:32:17;;;;;;;;;;;9.80;99.90;;;;;;4945827;28;20290;-72
2023/01/02 15:34:44;;;;;;;;;;;9.80;99.90;;;;;;4942854;29;19933;-69
2023/01/02 15:37:11;;;;;;;;;;;9.80;99.90;;;;;;4945382;28;20370;-70
2023/01/02 15:39:39;;;;;;;;;;;9.70;99.90;;;;;;4933794;29;19935;-69
2023/01/02 15:45:08;;;;;;;;;;;9.70;99.90;;;;;;4935359;29;19926;-69
2023/01/02 15:45:11;;;;;;;;;;;9.70;99.90;;;;;;4931766;29;19957;-71
2023/01/02 15:47:41;;;;;;;;;;;9.70;99.90;;;;;;4932348;29;19930;-70
2023/01/02 15:50:12;;;;;;;;;;;9.70;99.90;;;;;;4935360;29;19933;-70
2023/01/02 15:52:39;;;;;;;;;;;9.70;99.90;;;;;;4932909;29;19994;-70
2023/01/02 15:55:11;;;;;;;;;;;9.70;99.90;;;;;;4931732;29;20382;-69
2023/01/02 15:57:45;;;;;;;;;;;9.70;99.90;;;;;;4933687;29;20361;-71
2023/01/02 16:00:26;;;;;;;;;;;9.70;99.90;;;;;;4933010;29;19933;-69
2023/01/02 16:02:54;;;;;;;;;;;9.70;99.90;;;;;;4945809;28;19931;-70
2023/01/02 16:05:21;;;;;;;;;;;9.70;99.90;;;;;;4935298;29;19930;-70
2023/01/02 16:07:49;;;;;;;;;;;9.70;99.90;;;;;;4939564;29;20377;-71
2023/01/02 16:10:17;;;;;;;;;;;9.70;99.90;;;;;;4936913;29;19934;-70
2023/01/02 16:12:49;;;;;;;;;;;9.70;99.90;;;;;;4934127;29;20457;-69
2023/01/02 16:15:19;;;;;;;;;;;9.70;99.90;;;;;;4938370;29;19982;-70
2023/01/02 16:17:46;;;;;;;;;;;9.70;99.90;;;;;;4936050;29;19934;-71
2023/01/02 16:20:18;;;;;;;;;;;9.70;99.90;;;;;;4935646;29;20350;-71
2023/01/02 16:22:46;;;;;;;;;;;9.70;99.90;;;;;;4933822;29;19983;-70
2023/01/02 16:25:16;;;;;;;;;;;9.70;99.90;;;;;;4943074;29;19978;-70
2023/01/02 16:27:47;;;;;;;;;;;9.70;99.90;;;;;;4939866;29;19998;-74
2023/01/02 16:30:15;;;;;;;;;;;9.70;99.90;;;;;;4941224;29;19934;-70
2023/01/02 16:32:46;;;;;;;;;;;9.70;99.90;;;;;;4935527;29;19985;-71
2023/01/02 16:35:20;;;;;;;;;;;9.70;99.90;;;;;;4939493;29;20030;-72
2023/01/02 16:37:51;;;;;;;;;;;9.70;99.90;;;;;;4938828;29;19927;-69
2023/01/02 16:40:39;;;;;;;;;;;9.70;99.90;;;;;;4938748;29;20398;-72
2023/01/02 16:43:07;;;;;;;;;;;9.80;99.90;;;;;;4935936;29;19949;-71
2023/01/02 16:45:35;;;;;;;;;;;9.80;99.90;;;;;;4943521;28;19982;-72
2023/01/02 16:48:03;;;;;;;;;;;9.80;99.90;;;;;;4940969;29;20405;-72
2023/01/02 16:50:31;;;;;;;;;;;9.80;99.90;;;;;;4952487;28;19934;-72
2023/01/02 16:53:01;;;;;;;;;;;9.80;99.90;;;;;;4944935;28;20390;-71
2023/01/02 16:55:28;;;;;;;;;;;9.80;99.90;;;;;;4937551;29;20346;-73
2023/01/02 16:57:55;;;;;;;;;;;9.80;99.90;;;;;;4942992;29;19942;-72
2023/01/02 17:00:22;;;;;;;;;;;9.90;99.90;;;;;;4940708;29;19990;-72
2023/01/02 17:02:49;;;;;;;;;;;9.80;99.90;;;;;;4944702;28;19981;-72
2023/01/02 17:05:17;;;;;;;;;;;9.80;99.90;;;;;;4952593;29;19933;-72
2023/01/02 17:07:46;;;;;;;;;;;9.80;99.90;;;;;;4945582;29;20492;-72
2023/01/02 17:10:13;;;;;;;;;;;9.80;99.90;;;;;;4946234;29;19932;-71
2023/01/02 17:12:39;;;;;;;;;;;9.80;99.90;;;;;;4939727;29;19931;-72
2023/01/02 17:15:07;;;;;;;;;;;9.80;99.90;;;;;;4940346;29;19927;-72
2023/01/02 17:17:34;;;;;;;;;;;9.80;99.90;;;;;;4940103;29;19926;-73
2023/01/02 17:20:00;;;;;;;;;;;9.80;99.90;;;;;;4941377;29;19982;-72
2023/01/02 17:22:27;;;;;;;;;;;9.70;99.90;;;;;;4945729;29;19927;-71
2023/01/02 17:24:56;;;;;;;;;;;9.60;99.90;;;;;;4947058;29;19926;-72
2023/01/02 17:27:23;;;;;;;;;;;9.30;99.90;;;;;;4950818;29;19930;-71
2023/01/02 17:29:50;;;;;;;;;;;9.00;99.90;;;;;;4947012;29;19934;-71
2023/01/02 17:32:17;;;;;;;;;;;8.70;99.90;;;;;;4944566;28;19934;-71
2023/01/02 17:34:43;;;;;;;;;;;8.60;99.90;;;;;;4944632;29;20002;-72
2023/01/02 17:37:11;;;;;;;;;;;8.60;99.90;;;;;;4942608;29;19931;-71
2023/01/02 17:39:38;;;;;;;;;;;8.50;99.90;;;;;;4939650;29;19927;-71
2023/01/02 17:42:06;;;;;;;;;;;8.40;99.90;;;;;;4945476;28;19981;-72
2023/01/02 17:44:33;;;;;;;;;;;8.40;99.90;;;;;;4945028;29;19926;-71
2023/01/02 17:47:00;;;;;;;;;;;8.40;99.90;;;;;;4943855;29;20413;-72
2023/01/02 17:49:27;;;;;;;;;;;8.30;99.90;;;;;;4939903;29;19927;-75
2023/01/02 17:51:53;;;;;;;;;;;8.30;99.90;;;;;;4946669;28;19927;-73
2023/01/02 17:54:20;;;;;;;;;;;8.30;99.90;;;;;;4942314;29;19938;-74
2023/01/02 17:56:47;;;;;;;;;;;8.30;99.90;;;;;;4943457;29;19941;-75
2023/01/02 17:59:18;;;;;;;;;;;8.40;99.90;;;;;;4946170;29;19982;-74
2023/01/02 18:01:44;;;;;;;;;;;8.40;99.90;;;;;;4944925;29;19930;-76
2023/01/02 18:04:12;;;;;;;;;;;8.40;99.90;;;;;;4942237;29;19934;-76
2023/01/02 18:06:38;;;;;;;;;;;8.40;99.90;;;;;;4945584;28;19927;-76
2023/01/02 18:09:06;;;;;;;;;;;8.40;99.90;;;;;;4947740;29;19926;-78
2023/01/02 18:11:33;;;;;;;;;;;8.40;99.90;;;;;;4938351;28;19927;-74
2023/01/02 18:14:02;;;;;;;;;;;8.40;99.90;;;;;;4947264;29;19983;-75
2023/01/02 18:16:32;;;;;;;;;;;8.40;99.90;;;;;;4944830;29;20358;-75
2023/01/02 18:19:00;;;;;;;;;;;8.40;99.90;;;;;;4944235;29;19927;-75
2023/01/02 18:21:29;;;;;;;;;;;8.30;99.90;;;;;;4943661;28;19934;-76
2023/01/02 18:23:56;;;;;;;;;;;8.30;99.90;;;;;;4940301;29;20362;-74
2023/01/02 18:26:24;;;;;;;;;;;8.30;99.90;;;;;;4940874;29;20338;-75
2023/01/02 18:28:55;;;;;;;;;;;8.30;99.90;;;;;;4941662;29;19931;-75
2023/01/02 18:31:23;;;;;;;;;;;8.30;99.90;;;;;;4958360;28;19927;-74
2023/01/02 18:33:53;;;;;;;;;;;8.40;99.90;;;;;;4939942;29;19927;-76
2023/01/02 18:36:21;;;;;;;;;;;8.40;99.90;;;;;;4941179;29;20413;-75
2023/01/02 18:38:49;;;;;;;;;;;8.40;99.90;;;;;;4952514;28;19933;-75
2023/01/02 18:41:19;;;;;;;;;;;8.50;99.90;;;;;;4943961;28;20311;-75
2023/01/02 18:43:48;;;;;;;;;;;8.60;99.90;;;;;;4945676;29;20321;-74